sensor_id;sensor_type;location;lat;lon;timestamp;P1;durP1;ratioP1;P2;durP2;ratioP2
79261;SDS011;68699;48.220;16.358;2023-07-02T00:01:22;3.33;;;3.00;;
79261;SDS011;68699;48.220;16.358;2023-07-02T00:03:48;2.90;;;2.70;;
79261;SDS011;68699;48.220;16.358;2023-07-02T00:06:14;3.13;;;2.83;;
79261;SDS011;68699;48.220;16.358;2023-07-02T00:08:42;2.90;;;2.60;;
79261;SDS011;68699;48.220;16.358;2023-07-02T00:11:08;3.20;;;2.90;;
79261;SDS011;68699;48.220;16.358;2023-07-02T00:13:37;2.73;;;2.53;;
79261;SDS011;68699;48.220;16.358;2023-07-02T00:16:03;3.00;;;2.80;;
79261;SDS011;68699;48.220;16.358;2023-07-02T00:18:29;3.20;;;2.90;;
79261;SDS011;68699;48.220;16.358;2023-07-02T00:20:59;3.00;;;2.80;;
79261;SDS011;68699;48.220;16.358;2023-07-02T00:23:27;2.70;;;2.43;;
79261;SDS011;68699;48.220;16.358;2023-07-02T00:25:53;3.17;;;2.60;;
79261;SDS011;68699;48.220;16.358;2023-07-02T00:28:19;2.77;;;2.57;;
79261;SDS011;68699;48.220;16.358;2023-07-02T00:30:45;3.00;;;2.60;;
79261;SDS011;68699;48.220;16.358;2023-07-02T00:33:11;2.80;;;2.60;;
79261;SDS011;68699;48.220;16.358;2023-07-02T00:35:37;2.97;;;2.77;;
79261;SDS011;68699;48.220;16.358;2023-07-02T00:38:03;2.90;;;2.70;;
79261;SDS011;68699;48.220;16.358;2023-07-02T00:40:29;2.80;;;2.60;;
79261;SDS011;68699;48.220;16.358;2023-07-02T00:42:55;2.40;;;2.20;;
79261;SDS011;68699;48.220;16.358;2023-07-02T00:45:22;2.87;;;2.67;;
79261;SDS011;68699;48.220;16.358;2023-07-02T00:47:52;3.67;;;2.67;;
79261;SDS011;68699;48.220;16.358;2023-07-02T00:50:20;2.77;;;2.60;;
79261;SDS011;68699;48.220;16.358;2023-07-02T00:52:47;2.43;;;2.30;;
79261;SDS011;68699;48.220;16.358;2023-07-02T00:55:13;2.57;;;2.37;;
79261;SDS011;68699;48.220;16.358;2023-07-02T00:57:39;2.73;;;2.53;;
79261;SDS011;68699;48.220;16.358;2023-07-02T01:00:06;4.53;;;2.70;;
79261;SDS011;68699;48.220;16.358;2023-07-02T01:02:32;3.20;;;2.63;;
79261;SDS011;68699;48.220;16.358;2023-07-02T01:04:58;2.90;;;2.70;;
79261;SDS011;68699;48.220;16.358;2023-07-02T01:07:24;2.77;;;2.57;;
79261;SDS011;68699;48.220;16.358;2023-07-02T01:09:51;3.77;;;2.77;;
79261;SDS011;68699;48.220;16.358;2023-07-02T01:12:17;2.87;;;2.63;;
79261;SDS011;68699;48.220;16.358;2023-07-02T01:14:51;3.00;;;2.70;;
79261;SDS011;68699;48.220;16.358;2023-07-02T01:17:18;2.83;;;2.37;;
79261;SDS011;68699;48.220;16.358;2023-07-02T01:22:11;3.00;;;2.70;;
79261;SDS011;68699;48.220;16.358;2023-07-02T01:24:38;3.00;;;2.67;;
79261;SDS011;68699;48.220;16.358;2023-07-02T01:27:04;3.20;;;2.70;;
79261;SDS011;68699;48.220;16.358;2023-07-02T01:29:30;2.90;;;2.70;;
79261;SDS011;68699;48.220;16.358;2023-07-02T01:31:57;2.63;;;2.43;;
79261;SDS011;68699;48.220;16.358;2023-07-02T01:34:23;2.90;;;2.70;;
79261;SDS011;68699;48.220;16.358;2023-07-02T01:36:49;3.27;;;2.50;;
79261;SDS011;68699;48.220;16.358;2023-07-02T01:39:15;2.40;;;2.30;;
79261;SDS011;68699;48.220;16.358;2023-07-02T01:44:10;2.73;;;2.53;;
79261;SDS011;68699;48.220;16.358;2023-07-02T01:46:36;2.80;;;2.60;;
79261;SDS011;68699;48.220;16.358;2023-07-02T01:49:02;2.63;;;2.43;;
79261;SDS011;68699;48.220;16.358;2023-07-02T01:51:28;3.87;;;2.50;;
79261;SDS011;68699;48.220;16.358;2023-07-02T01:53:54;3.10;;;2.80;;
79261;SDS011;68699;48.220;16.358;2023-07-02T01:56:20;2.87;;;2.67;;
79261;SDS011;68699;48.220;16.358;2023-07-02T01:58:46;2.80;;;2.60;;
79261;SDS011;68699;48.220;16.358;2023-07-02T02:01:12;2.93;;;2.50;;
79261;SDS011;68699;48.220;16.358;2023-07-02T02:03:38;2.97;;;2.67;;
79261;SDS011;68699;48.220;16.358;2023-07-02T02:06:04;2.97;;;2.77;;
79261;SDS011;68699;48.220;16.358;2023-07-02T02:08:31;2.77;;;2.57;;
79261;SDS011;68699;48.220;16.358;2023-07-02T02:10:57;2.90;;;2.60;;
79261;SDS011;68699;48.220;16.358;2023-07-02T02:13:25;2.70;;;2.53;;
79261;SDS011;68699;48.220;16.358;2023-07-02T02:15:54;2.87;;;2.60;;
79261;SDS011;68699;48.220;16.358;2023-07-02T02:18:20;3.23;;;2.60;;
79261;SDS011;68699;48.220;16.358;2023-07-02T02:20:46;3.10;;;2.80;;
79261;SDS011;68699;48.220;16.358;2023-07-02T02:23:12;3.10;;;2.90;;
79261;SDS011;68699;48.220;16.358;2023-07-02T02:25:39;3.23;;;3.00;;
79261;SDS011;68699;48.220;16.358;2023-07-02T02:28:05;2.87;;;2.67;;
79261;SDS011;68699;48.220;16.358;2023-07-02T02:30:31;3.00;;;2.80;;
79261;SDS011;68699;48.220;16.358;2023-07-02T02:32:57;2.93;;;2.73;;
79261;SDS011;68699;48.220;16.358;2023-07-02T02:35:23;2.90;;;2.70;;
79261;SDS011;68699;48.220;16.358;2023-07-02T02:37:49;2.97;;;2.77;;
79261;SDS011;68699;48.220;16.358;2023-07-02T02:40:16;3.13;;;2.93;;
79261;SDS011;68699;48.220;16.358;2023-07-02T02:42:42;3.23;;;3.03;;
79261;SDS011;68699;48.220;16.358;2023-07-02T02:45:08;3.33;;;3.03;;
79261;SDS011;68699;48.220;16.358;2023-07-02T02:47:34;3.17;;;2.87;;
79261;SDS011;68699;48.220;16.358;2023-07-02T02:50:00;3.40;;;2.93;;
79261;SDS011;68699;48.220;16.358;2023-07-02T02:52:27;3.17;;;2.87;;
79261;SDS011;68699;48.220;16.358;2023-07-02T02:54:53;3.53;;;3.23;;
79261;SDS011;68699;48.220;16.358;2023-07-02T02:57:19;3.27;;;2.93;;
79261;SDS011;68699;48.220;16.358;2023-07-02T02:59:45;3.33;;;3.07;;
79261;SDS011;68699;48.220;16.358;2023-07-02T03:02:11;3.53;;;3.00;;
79261;SDS011;68699;48.220;16.358;2023-07-02T03:04:37;3.33;;;3.03;;
79261;SDS011;68699;48.220;16.358;2023-07-02T03:07:06;3.37;;;2.90;;
79261;SDS011;68699;48.220;16.358;2023-07-02T03:09:32;3.20;;;3.00;;
79261;SDS011;68699;48.220;16.358;2023-07-02T03:11:59;3.47;;;3.00;;
79261;SDS011;68699;48.220;16.358;2023-07-02T03:14:25;3.20;;;3.00;;
79261;SDS011;68699;48.220;16.358;2023-07-02T03:16:51;3.20;;;2.90;;
79261;SDS011;68699;48.220;16.358;2023-07-02T03:19:17;3.10;;;2.90;;
79261;SDS011;68699;48.220;16.358;2023-07-02T03:21:43;3.70;;;3.17;;
79261;SDS011;68699;48.220;16.358;2023-07-02T03:24:10;4.73;;;3.23;;
79261;SDS011;68699;48.220;16.358;2023-07-02T03:26:38;3.53;;;3.23;;
79261;SDS011;68699;48.220;16.358;2023-07-02T03:29:05;3.10;;;2.90;;
79261;SDS011;68699;48.220;16.358;2023-07-02T03:31:31;3.83;;;3.20;;
79261;SDS011;68699;48.220;16.358;2023-07-02T03:33:58;3.10;;;2.90;;
79261;SDS011;68699;48.220;16.358;2023-07-02T03:36:24;3.20;;;2.90;;
79261;SDS011;68699;48.220;16.358;2023-07-02T03:38:50;3.43;;;3.10;;
79261;SDS011;68699;48.220;16.358;2023-07-02T03:41:19;4.03;;;3.27;;
79261;SDS011;68699;48.220;16.358;2023-07-02T03:43:45;3.40;;;3.10;;
79261;SDS011;68699;48.220;16.358;2023-07-02T03:46:12;3.37;;;3.13;;
79261;SDS011;68699;48.220;16.358;2023-07-02T03:48:39;3.63;;;3.27;;
79261;SDS011;68699;48.220;16.358;2023-07-02T03:51:06;3.27;;;3.03;;
79261;SDS011;68699;48.220;16.358;2023-07-02T03:53:32;3.17;;;2.97;;
79261;SDS011;68699;48.220;16.358;2023-07-02T03:55:58;3.47;;;2.90;;
79261;SDS011;68699;48.220;16.358;2023-07-02T03:58:25;3.50;;;3.20;;
79261;SDS011;68699;48.220;16.358;2023-07-02T04:00:52;3.60;;;3.27;;
79261;SDS011;68699;48.220;16.358;2023-07-02T04:03:18;3.30;;;3.10;;
79261;SDS011;68699;48.220;16.358;2023-07-02T04:05:44;3.53;;;3.23;;
79261;SDS011;68699;48.220;16.358;2023-07-02T04:08:10;3.67;;;3.37;;
79261;SDS011;68699;48.220;16.358;2023-07-02T04:10:36;3.60;;;3.30;;
79261;SDS011;68699;48.220;16.358;2023-07-02T04:13:03;3.70;;;3.40;;
79261;SDS011;68699;48.220;16.358;2023-07-02T04:15:29;3.77;;;3.47;;
79261;SDS011;68699;48.220;16.358;2023-07-02T04:17:55;3.97;;;3.30;;
79261;SDS011;68699;48.220;16.358;2023-07-02T04:20:22;3.73;;;3.43;;
79261;SDS011;68699;48.220;16.358;2023-07-02T04:22:48;3.70;;;3.40;;
79261;SDS011;68699;48.220;16.358;2023-07-02T04:25:14;3.87;;;3.30;;
79261;SDS011;68699;48.220;16.358;2023-07-02T04:27:41;4.17;;;3.53;;
79261;SDS011;68699;48.220;16.358;2023-07-02T04:30:07;3.73;;;3.43;;
79261;SDS011;68699;48.220;16.358;2023-07-02T04:32:35;3.70;;;3.40;;
79261;SDS011;68699;48.220;16.358;2023-07-02T04:35:01;3.83;;;3.50;;
79261;SDS011;68699;48.220;16.358;2023-07-02T04:37:27;3.67;;;3.37;;
79261;SDS011;68699;48.220;16.358;2023-07-02T04:39:54;3.90;;;3.27;;
79261;SDS011;68699;48.220;16.358;2023-07-02T04:42:20;3.40;;;3.20;;
79261;SDS011;68699;48.220;16.358;2023-07-02T04:44:46;3.67;;;3.30;;
79261;SDS011;68699;48.220;16.358;2023-07-02T04:47:12;3.57;;;3.20;;
79261;SDS011;68699;48.220;16.358;2023-07-02T04:49:39;3.17;;;2.97;;
79261;SDS011;68699;48.220;16.358;2023-07-02T04:52:05;3.60;;;2.90;;
79261;SDS011;68699;48.220;16.358;2023-07-02T04:54:31;3.77;;;3.00;;
79261;SDS011;68699;48.220;16.358;2023-07-02T04:56:57;3.20;;;3.00;;
79261;SDS011;68699;48.220;16.358;2023-07-02T04:59:24;3.27;;;2.90;;
79261;SDS011;68699;48.220;16.358;2023-07-02T05:01:50;3.60;;;3.00;;
79261;SDS011;68699;48.220;16.358;2023-07-02T05:04:16;2.80;;;2.60;;
79261;SDS011;68699;48.220;16.358;2023-07-02T05:06:42;3.37;;;2.83;;
79261;SDS011;68699;48.220;16.358;2023-07-02T05:09:08;3.10;;;2.90;;
79261;SDS011;68699;48.220;16.358;2023-07-02T05:11:34;2.97;;;2.77;;
79261;SDS011;68699;48.220;16.358;2023-07-02T05:14:00;2.63;;;2.43;;
79261;SDS011;68699;48.220;16.358;2023-07-02T05:16:27;3.30;;;2.53;;
79261;SDS011;68699;48.220;16.358;2023-07-02T05:18:53;2.70;;;2.50;;
79261;SDS011;68699;48.220;16.358;2023-07-02T05:21:19;2.70;;;2.50;;
79261;SDS011;68699;48.220;16.358;2023-07-02T05:23:46;2.50;;;2.40;;
79261;SDS011;68699;48.220;16.358;2023-07-02T05:26:12;3.13;;;2.83;;
79261;SDS011;68699;48.220;16.358;2023-07-02T05:28:38;2.80;;;2.60;;
79261;SDS011;68699;48.220;16.358;2023-07-02T05:31:04;3.73;;;2.50;;
79261;SDS011;68699;48.220;16.358;2023-07-02T05:33:31;3.33;;;2.60;;
79261;SDS011;68699;48.220;16.358;2023-07-02T05:35:58;3.27;;;2.63;;
79261;SDS011;68699;48.220;16.358;2023-07-02T05:38:24;2.90;;;2.60;;
79261;SDS011;68699;48.220;16.358;2023-07-02T05:40:51;3.37;;;2.70;;
79261;SDS011;68699;48.220;16.358;2023-07-02T05:43:17;2.73;;;2.47;;
79261;SDS011;68699;48.220;16.358;2023-07-02T05:45:43;2.83;;;2.67;;
79261;SDS011;68699;48.220;16.358;2023-07-02T05:48:09;3.20;;;2.90;;
79261;SDS011;68699;48.220;16.358;2023-07-02T05:50:35;2.83;;;2.60;;
79261;SDS011;68699;48.220;16.358;2023-07-02T05:53:01;3.13;;;2.93;;
79261;SDS011;68699;48.220;16.358;2023-07-02T05:55:28;2.83;;;2.70;;
79261;SDS011;68699;48.220;16.358;2023-07-02T05:57:54;3.27;;;2.97;;
79261;SDS011;68699;48.220;16.358;2023-07-02T06:00:22;3.40;;;3.03;;
79261;SDS011;68699;48.220;16.358;2023-07-02T06:02:48;3.60;;;3.30;;
79261;SDS011;68699;48.220;16.358;2023-07-02T06:05:14;3.33;;;3.13;;
79261;SDS011;68699;48.220;16.358;2023-07-02T06:07:41;3.57;;;3.27;;
79261;SDS011;68699;48.220;16.358;2023-07-02T06:10:07;4.00;;;3.60;;
79261;SDS011;68699;48.220;16.358;2023-07-02T06:12:33;3.63;;;3.33;;
79261;SDS011;68699;48.220;16.358;2023-07-02T06:14:59;3.73;;;3.40;;
79261;SDS011;68699;48.220;16.358;2023-07-02T06:17:26;3.73;;;3.43;;
79261;SDS011;68699;48.220;16.358;2023-07-02T06:19:52;3.77;;;3.47;;
79261;SDS011;68699;48.220;16.358;2023-07-02T06:22:18;3.63;;;3.33;;
79261;SDS011;68699;48.220;16.358;2023-07-02T06:24:44;3.93;;;3.53;;
79261;SDS011;68699;48.220;16.358;2023-07-02T06:27:10;3.83;;;3.50;;
79261;SDS011;68699;48.220;16.358;2023-07-02T06:29:36;3.80;;;3.50;;
79261;SDS011;68699;48.220;16.358;2023-07-02T06:32:02;3.73;;;3.33;;
79261;SDS011;68699;48.220;16.358;2023-07-02T06:34:29;4.23;;;3.37;;
79261;SDS011;68699;48.220;16.358;2023-07-02T06:36:55;3.27;;;3.07;;
79261;SDS011;68699;48.220;16.358;2023-07-02T06:39:21;5.33;;;4.83;;
79261;SDS011;68699;48.220;16.358;2023-07-02T06:41:47;3.70;;;3.40;;
79261;SDS011;68699;48.220;16.358;2023-07-02T06:44:13;3.60;;;3.30;;
79261;SDS011;68699;48.220;16.358;2023-07-02T06:46:39;3.23;;;3.03;;
79261;SDS011;68699;48.220;16.358;2023-07-02T06:49:06;3.30;;;3.10;;
79261;SDS011;68699;48.220;16.358;2023-07-02T06:51:32;3.50;;;3.20;;
79261;SDS011;68699;48.220;16.358;2023-07-02T06:53:59;3.53;;;3.23;;
79261;SDS011;68699;48.220;16.358;2023-07-02T06:56:25;3.10;;;2.90;;
79261;SDS011;68699;48.220;16.358;2023-07-02T06:58:51;3.30;;;3.10;;
79261;SDS011;68699;48.220;16.358;2023-07-02T07:01:18;3.27;;;3.07;;
79261;SDS011;68699;48.220;16.358;2023-07-02T07:03:44;3.00;;;2.80;;
79261;SDS011;68699;48.220;16.358;2023-07-02T07:06:10;3.10;;;2.90;;
79261;SDS011;68699;48.220;16.358;2023-07-02T07:08:37;3.00;;;2.80;;
79261;SDS011;68699;48.220;16.358;2023-07-02T07:11:04;2.83;;;2.63;;
79261;SDS011;68699;48.220;16.358;2023-07-02T07:13:30;2.70;;;2.50;;
79261;SDS011;68699;48.220;16.358;2023-07-02T07:15:56;2.73;;;2.60;;
79261;SDS011;68699;48.220;16.358;2023-07-02T07:18:22;2.77;;;2.57;;
79261;SDS011;68699;48.220;16.358;2023-07-02T07:20:48;2.70;;;2.60;;
79261;SDS011;68699;48.220;16.358;2023-07-02T07:23:15;2.50;;;2.40;;
79261;SDS011;68699;48.220;16.358;2023-07-02T07:25:42;2.33;;;2.20;;
79261;SDS011;68699;48.220;16.358;2023-07-02T07:28:08;3.40;;;2.70;;
79261;SDS011;68699;48.220;16.358;2023-07-02T07:30:41;2.63;;;2.47;;
79261;SDS011;68699;48.220;16.358;2023-07-02T07:33:07;2.77;;;2.57;;
79261;SDS011;68699;48.220;16.358;2023-07-02T07:35:33;2.50;;;2.30;;
79261;SDS011;68699;48.220;16.358;2023-07-02T07:38:00;2.60;;;2.13;;
79261;SDS011;68699;48.220;16.358;2023-07-02T07:40:26;2.50;;;2.30;;
79261;SDS011;68699;48.220;16.358;2023-07-02T07:42:52;2.90;;;2.70;;
79261;SDS011;68699;48.220;16.358;2023-07-02T07:45:18;2.22;;;2.10;;
79261;SDS011;68699;48.220;16.358;2023-07-02T07:47:44;2.70;;;2.50;;
79261;SDS011;68699;48.220;16.358;2023-07-02T07:50:10;2.20;;;2.10;;
79261;SDS011;68699;48.220;16.358;2023-07-02T07:52:37;2.67;;;2.58;;
79261;SDS011;68699;48.220;16.358;2023-07-02T07:55:04;2.45;;;2.35;;
79261;SDS011;68699;48.220;16.358;2023-07-02T07:57:30;4.68;;;2.60;;
79261;SDS011;68699;48.220;16.358;2023-07-02T07:59:57;3.10;;;2.60;;
79261;SDS011;68699;48.220;16.358;2023-07-02T08:02:23;2.80;;;2.60;;
79261;SDS011;68699;48.220;16.358;2023-07-02T08:04:49;3.40;;;3.10;;
79261;SDS011;68699;48.220;16.358;2023-07-02T08:07:15;2.95;;;2.75;;
79261;SDS011;68699;48.220;16.358;2023-07-02T08:09:41;2.63;;;2.53;;
79261;SDS011;68699;48.220;16.358;2023-07-02T08:12:08;2.75;;;2.55;;
79261;SDS011;68699;48.220;16.358;2023-07-02T08:14:34;2.90;;;2.70;;
79261;SDS011;68699;48.220;16.358;2023-07-02T08:17:00;2.92;;;2.72;;
79261;SDS011;68699;48.220;16.358;2023-07-02T08:19:27;3.20;;;3.00;;
79261;SDS011;68699;48.220;16.358;2023-07-02T08:21:53;3.17;;;2.90;;
79261;SDS011;68699;48.220;16.358;2023-07-02T08:24:19;2.80;;;2.60;;
79261;SDS011;68699;48.220;16.358;2023-07-02T08:26:45;2.70;;;2.50;;
79261;SDS011;68699;48.220;16.358;2023-07-02T08:29:13;3.13;;;2.92;;
79261;SDS011;68699;48.220;16.358;2023-07-02T08:31:39;2.58;;;2.38;;
79261;SDS011;68699;48.220;16.358;2023-07-02T08:34:06;2.53;;;2.40;;
79261;SDS011;68699;48.220;16.358;2023-07-02T08:36:32;3.10;;;2.90;;
79261;SDS011;68699;48.220;16.358;2023-07-02T08:38:58;4.20;;;2.65;;
79261;SDS011;68699;48.220;16.358;2023-07-02T08:41:24;4.03;;;2.80;;
79261;SDS011;68699;48.220;16.358;2023-07-02T08:43:55;3.00;;;2.80;;
79261;SDS011;68699;48.220;16.358;2023-07-02T08:46:21;2.78;;;2.58;;
79261;SDS011;68699;48.220;16.358;2023-07-02T08:48:47;3.35;;;3.05;;
79261;SDS011;68699;48.220;16.358;2023-07-02T08:51:14;2.70;;;2.58;;
79261;SDS011;68699;48.220;16.358;2023-07-02T08:53:40;2.78;;;2.60;;
79261;SDS011;68699;48.220;16.358;2023-07-02T08:56:07;3.00;;;2.80;;
79261;SDS011;68699;48.220;16.358;2023-07-02T08:58:33;3.22;;;2.63;;
79261;SDS011;68699;48.220;16.358;2023-07-02T09:01:12;3.22;;;2.97;;
79261;SDS011;68699;48.220;16.358;2023-07-02T09:03:39;2.47;;;2.38;;
79261;SDS011;68699;48.220;16.358;2023-07-02T09:06:06;2.75;;;2.55;;
79261;SDS011;68699;48.220;16.358;2023-07-02T09:08:33;3.05;;;2.85;;
79261;SDS011;68699;48.220;16.358;2023-07-02T09:11:33;2.80;;;2.60;;
79261;SDS011;68699;48.220;16.358;2023-07-02T09:13:52;2.75;;;2.55;;
79261;SDS011;68699;48.220;16.358;2023-07-02T09:16:24;3.17;;;2.60;;
79261;SDS011;68699;48.220;16.358;2023-07-02T09:18:58;2.72;;;2.63;;
79261;SDS011;68699;48.220;16.358;2023-07-02T09:21:27;2.90;;;2.70;;
79261;SDS011;68699;48.220;16.358;2023-07-02T09:23:54;2.72;;;2.53;;
79261;SDS011;68699;48.220;16.358;2023-07-02T09:26:23;2.83;;;2.63;;
79261;SDS011;68699;48.220;16.358;2023-07-02T09:28:49;2.75;;;2.55;;
79261;SDS011;68699;48.220;16.358;2023-07-02T09:31:16;2.70;;;2.50;;
79261;SDS011;68699;48.220;16.358;2023-07-02T09:33:42;2.92;;;2.63;;
79261;SDS011;68699;48.220;16.358;2023-07-02T09:36:08;2.40;;;2.30;;
79261;SDS011;68699;48.220;16.358;2023-07-02T09:38:34;3.20;;;2.80;;
79261;SDS011;68699;48.220;16.358;2023-07-02T09:41:01;2.88;;;2.67;;
79261;SDS011;68699;48.220;16.358;2023-07-02T09:43:27;3.10;;;2.90;;
79261;SDS011;68699;48.220;16.358;2023-07-02T09:45:54;3.20;;;3.00;;
79261;SDS011;68699;48.220;16.358;2023-07-02T09:48:22;3.00;;;2.80;;
79261;SDS011;68699;48.220;16.358;2023-07-02T09:50:50;2.90;;;2.70;;
79261;SDS011;68699;48.220;16.358;2023-07-02T09:53:17;3.00;;;2.80;;
79261;SDS011;68699;48.220;16.358;2023-07-02T09:55:43;3.35;;;3.05;;
79261;SDS011;68699;48.220;16.358;2023-07-02T09:58:10;2.97;;;2.65;;
79261;SDS011;68699;48.220;16.358;2023-07-02T10:00:39;3.00;;;2.80;;
79261;SDS011;68699;48.220;16.358;2023-07-02T10:03:06;2.67;;;2.50;;
79261;SDS011;68699;48.220;16.358;2023-07-02T10:05:33;2.90;;;2.70;;
79261;SDS011;68699;48.220;16.358;2023-07-02T10:08:12;3.10;;;2.90;;
79261;SDS011;68699;48.220;16.358;2023-07-02T10:10:38;3.20;;;2.90;;
79261;SDS011;68699;48.220;16.358;2023-07-02T10:13:05;2.97;;;2.70;;
79261;SDS011;68699;48.220;16.358;2023-07-02T10:15:33;2.90;;;2.70;;
79261;SDS011;68699;48.220;16.358;2023-07-02T10:18:03;2.80;;;2.60;;
79261;SDS011;68699;48.220;16.358;2023-07-02T10:20:36;2.97;;;2.73;;
79261;SDS011;68699;48.220;16.358;2023-07-02T10:23:03;2.80;;;2.60;;
79261;SDS011;68699;48.220;16.358;2023-07-02T10:25:29;3.10;;;2.90;;
79261;SDS011;68699;48.220;16.358;2023-07-02T10:27:56;2.83;;;2.63;;
79261;SDS011;68699;48.220;16.358;2023-07-02T10:33:11;2.90;;;2.70;;
79261;SDS011;68699;48.220;16.358;2023-07-02T10:35:37;2.85;;;2.65;;
79261;SDS011;68699;48.220;16.358;2023-07-02T10:38:04;2.55;;;2.45;;
79261;SDS011;68699;48.220;16.358;2023-07-02T10:40:34;2.80;;;2.60;;
79261;SDS011;68699;48.220;16.358;2023-07-02T10:43:00;2.63;;;2.33;;
79261;SDS011;68699;48.220;16.358;2023-07-02T10:45:32;2.80;;;2.70;;
79261;SDS011;68699;48.220;16.358;2023-07-02T10:47:59;3.35;;;2.88;;
79261;SDS011;68699;48.220;16.358;2023-07-02T10:50:26;2.70;;;2.50;;
79261;SDS011;68699;48.220;16.358;2023-07-02T10:52:52;3.10;;;2.90;;
79261;SDS011;68699;48.220;16.358;2023-07-02T10:55:19;3.63;;;2.90;;
79261;SDS011;68699;48.220;16.358;2023-07-02T10:57:45;2.85;;;2.65;;
79261;SDS011;68699;48.220;16.358;2023-07-02T11:00:11;2.97;;;2.67;;
79261;SDS011;68699;48.220;16.358;2023-07-02T11:02:38;2.78;;;2.58;;
79261;SDS011;68699;48.220;16.358;2023-07-02T11:05:05;2.80;;;2.60;;
79261;SDS011;68699;48.220;16.358;2023-07-02T11:07:32;2.75;;;2.55;;
79261;SDS011;68699;48.220;16.358;2023-07-02T11:09:58;2.92;;;2.72;;
79261;SDS011;68699;48.220;16.358;2023-07-02T11:12:29;3.03;;;2.72;;
79261;SDS011;68699;48.220;16.358;2023-07-02T11:14:55;2.50;;;2.35;;
79261;SDS011;68699;48.220;16.358;2023-07-02T11:17:32;2.90;;;2.70;;
79261;SDS011;68699;48.220;16.358;2023-07-02T11:19:58;2.92;;;2.72;;
79261;SDS011;68699;48.220;16.358;2023-07-02T11:22:31;3.00;;;2.80;;
79261;SDS011;68699;48.220;16.358;2023-07-02T11:25:07;2.70;;;2.50;;
79261;SDS011;68699;48.220;16.358;2023-07-02T11:27:34;4.25;;;2.92;;
79261;SDS011;68699;48.220;16.358;2023-07-02T11:30:00;3.20;;;2.90;;
79261;SDS011;68699;48.220;16.358;2023-07-02T11:32:26;2.80;;;2.60;;
79261;SDS011;68699;48.220;16.358;2023-07-02T11:34:55;5.07;;;3.00;;
79261;SDS011;68699;48.220;16.358;2023-07-02T11:37:21;2.80;;;2.60;;
79261;SDS011;68699;48.220;16.358;2023-07-02T11:39:48;3.03;;;2.80;;
79261;SDS011;68699;48.220;16.358;2023-07-02T11:42:14;2.60;;;2.40;;
79261;SDS011;68699;48.220;16.358;2023-07-02T11:44:40;4.50;;;2.77;;
79261;SDS011;68699;48.220;16.358;2023-07-02T11:47:06;2.87;;;2.37;;
79261;SDS011;68699;48.220;16.358;2023-07-02T11:49:32;2.60;;;2.50;;
79261;SDS011;68699;48.220;16.358;2023-07-02T11:51:58;2.47;;;2.28;;
79261;SDS011;68699;48.220;16.358;2023-07-02T11:54:25;3.03;;;2.50;;
79261;SDS011;68699;48.220;16.358;2023-07-02T11:56:53;2.50;;;2.30;;
79261;SDS011;68699;48.220;16.358;2023-07-02T11:59:19;2.78;;;2.50;;
79261;SDS011;68699;48.220;16.358;2023-07-02T12:01:46;3.00;;;2.22;;
79261;SDS011;68699;48.220;16.358;2023-07-02T12:04:12;2.80;;;2.60;;
79261;SDS011;68699;48.220;16.358;2023-07-02T12:06:38;2.50;;;2.30;;
79261;SDS011;68699;48.220;16.358;2023-07-02T12:09:04;2.53;;;2.33;;
79261;SDS011;68699;48.220;16.358;2023-07-02T12:11:31;2.40;;;2.20;;
79261;SDS011;68699;48.220;16.358;2023-07-02T12:13:57;3.42;;;2.40;;
79261;SDS011;68699;48.220;16.358;2023-07-02T12:16:23;2.58;;;2.40;;
79261;SDS011;68699;48.220;16.358;2023-07-02T12:18:50;2.47;;;2.27;;
79261;SDS011;68699;48.220;16.358;2023-07-02T12:21:16;2.53;;;2.30;;
79261;SDS011;68699;48.220;16.358;2023-07-02T12:23:43;3.42;;;2.10;;
79261;SDS011;68699;48.220;16.358;2023-07-02T12:26:09;2.90;;;2.60;;
79261;SDS011;68699;48.220;16.358;2023-07-02T12:28:36;2.85;;;2.40;;
79261;SDS011;68699;48.220;16.358;2023-07-02T12:31:02;2.92;;;2.38;;
79261;SDS011;68699;48.220;16.358;2023-07-02T12:33:28;2.95;;;2.40;;
79261;SDS011;68699;48.220;16.358;2023-07-02T12:35:54;2.55;;;2.35;;
79261;SDS011;68699;48.220;16.358;2023-07-02T12:38:20;2.60;;;2.30;;
79261;SDS011;68699;48.220;16.358;2023-07-02T12:40:47;2.70;;;2.30;;
79261;SDS011;68699;48.220;16.358;2023-07-02T12:43:13;2.17;;;2.03;;
79261;SDS011;68699;48.220;16.358;2023-07-02T12:45:40;2.72;;;2.47;;
79261;SDS011;68699;48.220;16.358;2023-07-02T12:48:06;2.83;;;2.30;;
79261;SDS011;68699;48.220;16.358;2023-07-02T12:50:32;2.60;;;2.40;;
79261;SDS011;68699;48.220;16.358;2023-07-02T12:52:58;2.70;;;2.50;;
79261;SDS011;68699;48.220;16.358;2023-07-02T12:55:24;2.60;;;2.40;;
79261;SDS011;68699;48.220;16.358;2023-07-02T12:57:50;2.50;;;2.28;;
79261;SDS011;68699;48.220;16.358;2023-07-02T13:00:17;3.00;;;2.45;;
79261;SDS011;68699;48.220;16.358;2023-07-02T13:02:46;2.28;;;2.08;;
79261;SDS011;68699;48.220;16.358;2023-07-02T13:05:13;2.88;;;2.58;;
79261;SDS011;68699;48.220;16.358;2023-07-02T13:07:39;2.25;;;2.15;;
79261;SDS011;68699;48.220;16.358;2023-07-02T13:10:06;2.37;;;2.10;;
79261;SDS011;68699;48.220;16.358;2023-07-02T13:12:33;2.20;;;2.05;;
79261;SDS011;68699;48.220;16.358;2023-07-02T13:15:00;2.28;;;2.03;;
79261;SDS011;68699;48.220;16.358;2023-07-02T13:17:26;2.10;;;2.00;;
79261;SDS011;68699;48.220;16.358;2023-07-02T13:19:53;3.90;;;2.10;;
79261;SDS011;68699;48.220;16.358;2023-07-02T13:22:21;2.30;;;2.13;;
79261;SDS011;68699;48.220;16.358;2023-07-02T13:24:48;2.03;;;1.92;;
79261;SDS011;68699;48.220;16.358;2023-07-02T13:27:15;2.20;;;2.00;;
79261;SDS011;68699;48.220;16.358;2023-07-02T13:29:42;2.20;;;1.85;;
79261;SDS011;68699;48.220;16.358;2023-07-02T13:32:09;2.00;;;1.90;;
79261;SDS011;68699;48.220;16.358;2023-07-02T13:34:36;2.00;;;1.90;;
79261;SDS011;68699;48.220;16.358;2023-07-02T13:37:03;2.33;;;2.03;;
79261;SDS011;68699;48.220;16.358;2023-07-02T13:39:30;2.10;;;1.90;;
79261;SDS011;68699;48.220;16.358;2023-07-02T13:42:00;2.85;;;1.70;;
79261;SDS011;68699;48.220;16.358;2023-07-02T13:44:26;2.20;;;2.03;;
79261;SDS011;68699;48.220;16.358;2023-07-02T13:46:53;1.70;;;1.60;;
79261;SDS011;68699;48.220;16.358;2023-07-02T13:49:19;2.97;;;1.70;;
79261;SDS011;68699;48.220;16.358;2023-07-02T13:51:46;1.80;;;1.70;;
79261;SDS011;68699;48.220;16.358;2023-07-02T13:54:15;3.00;;;1.70;;
79261;SDS011;68699;48.220;16.358;2023-07-02T13:56:41;3.17;;;1.90;;
79261;SDS011;68699;48.220;16.358;2023-07-02T13:59:08;1.95;;;1.85;;
79261;SDS011;68699;48.220;16.358;2023-07-02T14:01:35;2.13;;;1.73;;
79261;SDS011;68699;48.220;16.358;2023-07-02T14:04:02;1.60;;;1.50;;
79261;SDS011;68699;48.220;16.358;2023-07-02T14:06:29;1.65;;;1.55;;
79261;SDS011;68699;48.220;16.358;2023-07-02T14:08:55;1.83;;;1.50;;
79261;SDS011;68699;48.220;16.358;2023-07-02T14:11:23;1.67;;;1.53;;
79261;SDS011;68699;48.220;16.358;2023-07-02T14:13:50;2.65;;;1.90;;
79261;SDS011;68699;48.220;16.358;2023-07-02T14:16:16;2.17;;;1.90;;
79261;SDS011;68699;48.220;16.358;2023-07-02T14:18:43;2.10;;;1.90;;
79261;SDS011;68699;48.220;16.358;2023-07-02T14:21:10;1.70;;;1.60;;
79261;SDS011;68699;48.220;16.358;2023-07-02T14:23:36;1.77;;;1.60;;
79261;SDS011;68699;48.220;16.358;2023-07-02T14:26:03;1.70;;;1.60;;
79261;SDS011;68699;48.220;16.358;2023-07-02T14:28:30;1.70;;;1.60;;
79261;SDS011;68699;48.220;16.358;2023-07-02T14:30:57;2.07;;;1.87;;
79261;SDS011;68699;48.220;16.358;2023-07-02T14:33:24;2.03;;;1.90;;
79261;SDS011;68699;48.220;16.358;2023-07-02T14:35:51;1.90;;;1.80;;
79261;SDS011;68699;48.220;16.358;2023-07-02T14:38:17;1.97;;;1.87;;